Time;durP1;ratioP1;P1;durP2;ratioP2;P2;SDS_P1;SDS_P2;PMS_P1;PMS_P2;Temp;Humidity;BMP_temperature;BMP_pressure;BME280_temperature;BME280_humidity;BME280_pressure;Samples;Min_cycle;Max_cycle;Signal;HPM_P1;HPM_P2
2023/06/02 00:00:47;;;;;;;4.93;3.10;;;;;;;;;;6106507;23;20392;-87
2023/06/02 00:03:14;;;;;;;4.77;3.60;;;;;;;;;;6106734;23;20385;-86
2023/06/02 00:05:40;;;;;;;4.50;3.03;;;;;;;;;;6108147;23;20470;-86
2023/06/02 00:08:06;;;;;;;7.27;3.03;;;;;;;;;;6107119;23;20422;-86
2023/06/02 00:10:32;;;;;;;5.93;3.13;;;;;;;;;;6105969;23;20381;-86
2023/06/02 00:12:58;;;;;;;3.50;2.87;;;;;;;;;;6105000;23;20377;-87
2023/06/02 00:15:24;;;;;;;5.97;3.07;;;;;;;;;;6105777;23;20380;-87
2023/06/02 00:17:50;;;;;;;5.93;3.47;;;;;;;;;;6104590;23;20384;-86
2023/06/02 00:20:17;;;;;;;5.00;2.80;;;;;;;;;;6105007;23;20377;-87
2023/06/02 00:22:46;;;;;;;3.83;3.07;;;;;;;;;;6105149;23;20385;-87
2023/06/02 00:25:12;;;;;;;6.50;2.80;;;;;;;;;;6106986;23;20387;-86
2023/06/02 00:27:38;;;;;;;5.77;2.70;;;;;;;;;;6107469;23;20837;-87
2023/06/02 00:30:05;;;;;;;5.10;3.27;;;;;;;;;;6105739;23;20413;-86
2023/06/02 00:32:31;;;;;;;5.93;2.93;;;;;;;;;;6106283;23;20853;-87
2023/06/02 00:34:57;;;;;;;4.50;2.97;;;;;;;;;;6105021;23;20381;-87
2023/06/02 00:37:23;;;;;;;3.67;2.93;;;;;;;;;;6134285;23;20388;-87
2023/06/02 00:39:49;;;;;;;5.70;3.17;;;;;;;;;;6104955;23;20373;-86
2023/06/02 00:42:15;;;;;;;7.03;3.80;;;;;;;;;;6130069;23;20376;-87
2023/06/02 00:44:41;;;;;;;5.70;2.97;;;;;;;;;;6104345;23;20404;-87
2023/06/02 00:47:07;;;;;;;3.93;2.60;;;;;;;;;;6105358;23;20384;-87
2023/06/02 00:49:33;;;;;;;5.00;3.40;;;;;;;;;;6105913;23;20421;-86
2023/06/02 00:51:59;;;;;;;4.73;3.53;;;;;;;;;;6105802;23;20419;-87
2023/06/02 00:54:26;;;;;;;3.77;2.87;;;;;;;;;;6105135;23;20384;-87
2023/06/02 00:56:54;;;;;;;4.57;3.20;;;;;;;;;;6105266;23;20408;-86
2023/06/02 00:59:22;;;;;;;4.33;2.70;;;;;;;;;;6105733;23;20381;-87
2023/06/02 01:01:48;;;;;;;4.30;3.10;;;;;;;;;;6106047;23;20459;-87
2023/06/02 01:04:15;;;;;;;5.60;3.90;;;;;;;;;;6105487;23;20440;-87
2023/06/02 01:06:40;;;;;;;6.10;3.40;;;;;;;;;;6106887;23;20820;-87
2023/06/02 01:09:07;;;;;;;9.33;3.43;;;;;;;;;;6106578;23;20424;-87
2023/06/02 01:11:33;;;;;;;4.77;3.17;;;;;;;;;;6107860;23;20476;-87
2023/06/02 01:13:59;;;;;;;6.33;3.47;;;;;;;;;;6103910;23;20383;-87
2023/06/02 01:16:27;;;;;;;5.57;3.17;;;;;;;;;;6131408;23;20368;-87
2023/06/02 01:18:53;;;;;;;3.83;2.80;;;;;;;;;;6130033;23;20388;-87
2023/06/02 01:21:23;;;;;;;4.37;2.70;;;;;;;;;;6104614;23;20384;-87
2023/06/02 01:23:57;;;;;;;4.60;3.13;;;;;;;;;;6104501;23;20432;-87
2023/06/02 01:26:23;;;;;;;5.00;3.30;;;;;;;;;;6106986;23;20377;-87
2023/06/02 01:28:49;;;;;;;5.93;3.87;;;;;;;;;;6104951;23;20492;-87
2023/06/02 01:31:16;;;;;;;8.47;4.07;;;;;;;;;;6106231;23;20377;-87
2023/06/02 01:33:50;;;;;;;4.30;3.50;;;;;;;;;;6105133;23;20385;-87
2023/06/02 01:36:17;;;;;;;6.60;3.33;;;;;;;;;;6105970;23;20388;-87
2023/06/02 01:38:43;;;;;;;5.60;4.03;;;;;;;;;;6129442;23;20376;-87
2023/06/02 01:41:09;;;;;;;3.80;2.77;;;;;;;;;;6129463;23;20831;-87
2023/06/02 01:43:35;;;;;;;6.57;4.10;;;;;;;;;;6105044;23;20384;-87
2023/06/02 01:46:01;;;;;;;5.37;4.23;;;;;;;;;;6107199;23;20849;-87
2023/06/02 01:48:28;;;;;;;5.73;4.03;;;;;;;;;;6105418;23;20482;-87
2023/06/02 01:50:54;;;;;;;6.20;3.83;;;;;;;;;;6106813;23;20389;-87
2023/06/02 01:53:20;;;;;;;5.40;3.63;;;;;;;;;;6105504;23;20393;-87
2023/06/02 01:55:49;;;;;;;5.00;3.40;;;;;;;;;;6106068;23;20388;-87
2023/06/02 01:58:15;;;;;;;9.13;4.17;;;;;;;;;;6106454;23;20388;-87
2023/06/02 02:00:41;;;;;;;7.83;3.20;;;;;;;;;;6133225;23;20365;-87
2023/06/02 02:03:07;;;;;;;6.07;3.83;;;;;;;;;;6106144;23;20400;-88
2023/06/02 02:05:33;;;;;;;5.13;3.70;;;;;;;;;;6106958;23;20702;-87
2023/06/02 02:07:59;;;;;;;4.23;3.40;;;;;;;;;;6106621;23;20373;-87
2023/06/02 02:10:25;;;;;;;4.80;3.60;;;;;;;;;;6107651;23;20464;-86
2023/06/02 02:12:51;;;;;;;6.03;4.07;;;;;;;;;;6131859;23;20372;-85
2023/06/02 02:15:17;;;;;;;5.97;4.03;;;;;;;;;;6107004;23;20380;-88
2023/06/02 02:17:47;;;;;;;6.20;3.60;;;;;;;;;;6107292;23;20383;-88
2023/06/02 02:20:16;;;;;;;5.50;3.83;;;;;;;;;;6108521;23;20524;-88
2023/06/02 02:22:42;;;;;;;5.60;3.93;;;;;;;;;;6107130;23;20444;-88
2023/06/02 02:25:08;;;;;;;7.30;3.40;;;;;;;;;;6132688;23;20365;-87
2023/06/02 02:27:35;;;;;;;5.73;3.67;;;;;;;;;;6108218;23;20468;-88
2023/06/02 02:30:01;;;;;;;5.70;3.80;;;;;;;;;;6106246;23;20417;-88
2023/06/02 02:32:27;;;;;;;5.47;3.50;;;;;;;;;;6105726;23;20384;-87
2023/06/02 02:34:53;;;;;;;5.37;4.03;;;;;;;;;;6106456;23;20377;-87
2023/06/02 02:37:19;;;;;;;6.83;5.50;;;;;;;;;;6106955;23;20377;-88
2023/06/02 02:39:45;;;;;;;6.30;4.20;;;;;;;;;;6105832;23;20423;-87
2023/06/02 02:42:11;;;;;;;5.30;3.97;;;;;;;;;;6107143;23;20709;-88
2023/06/02 02:44:37;;;;;;;6.10;3.73;;;;;;;;;;6107406;23;20471;-87
2023/06/02 02:47:03;;;;;;;6.77;4.30;;;;;;;;;;6107266;23;20373;-87
2023/06/02 02:49:29;;;;;;;8.33;4.27;;;;;;;;;;6105747;23;20947;-87
2023/06/02 02:51:56;;;;;;;6.57;4.37;;;;;;;;;;6107456;23;20381;-88
2023/06/02 02:54:22;;;;;;;5.00;3.70;;;;;;;;;;6106985;23;20377;-87
2023/06/02 02:56:48;;;;;;;6.10;4.43;;;;;;;;;;6107144;23;20387;-87
2023/06/02 02:59:15;;;;;;;5.13;3.40;;;;;;;;;;6132241;23;20372;-87
2023/06/02 03:01:44;;;;;;;8.67;4.33;;;;;;;;;;6107133;23;20456;-87
2023/06/02 03:04:21;;;;;;;13.23;5.57;;;;;;;;;;6106485;23;20385;-88
2023/06/02 03:06:48;;;;;;;7.90;4.40;;;;;;;;;;6107300;23;20452;-87
2023/06/02 03:09:14;;;;;;;5.67;3.57;;;;;;;;;;6104562;23;20859;-87
2023/06/02 03:11:40;;;;;;;8.27;4.33;;;;;;;;;;6134659;23;20400;-87
2023/06/02 03:14:06;;;;;;;5.23;4.60;;;;;;;;;;6108817;23;20381;-87
2023/06/02 03:16:34;;;;;;;6.93;3.97;;;;;;;;;;6108740;23;20489;-88
2023/06/02 03:19:00;;;;;;;7.07;4.67;;;;;;;;;;6108955;23;20414;-88
2023/06/02 03:21:26;;;;;;;7.80;4.83;;;;;;;;;;6110672;23;20373;-87
2023/06/02 03:23:53;;;;;;;7.63;4.40;;;;;;;;;;6107390;23;20410;-87
2023/06/02 03:26:25;;;;;;;6.07;4.70;;;;;;;;;;6114033;23;20401;-87
2023/06/02 03:28:52;;;;;;;6.60;4.40;;;;;;;;;;6109264;23;20998;-87
2023/06/02 03:31:18;;;;;;;7.00;4.47;;;;;;;;;;6133002;23;20380;-87
2023/06/02 03:33:43;;;;;;;7.83;4.53;;;;;;;;;;6132215;23;20376;-87
2023/06/02 03:36:10;;;;;;;8.00;4.90;;;;;;;;;;6107960;23;20376;-87
2023/06/02 03:38:35;;;;;;;10.87;5.50;;;;;;;;;;6108012;23;20389;-87
2023/06/02 03:41:01;;;;;;;6.47;4.47;;;;;;;;;;6109932;23;20465;-87
2023/06/02 03:43:27;;;;;;;5.23;4.30;;;;;;;;;;6132625;23;20380;-87
2023/06/02 03:45:53;;;;;;;6.70;5.10;;;;;;;;;;6105553;23;20381;-88
2023/06/02 03:48:20;;;;;;;7.40;4.50;;;;;;;;;;6107361;23;20824;-86
2023/06/02 03:50:46;;;;;;;8.10;4.57;;;;;;;;;;6109966;23;20388;-86
2023/06/02 03:53:12;;;;;;;7.60;4.87;;;;;;;;;;6106700;23;20841;-86
2023/06/02 03:55:38;;;;;;;6.87;4.60;;;;;;;;;;6108819;23;20369;-88
2023/06/02 03:58:04;;;;;;;7.13;4.67;;;;;;;;;;6107880;23;20384;-87
2023/06/02 04:00:30;;;;;;;9.03;6.27;;;;;;;;;;6110267;23;20376;-87
2023/06/02 04:02:57;;;;;;;9.37;4.90;;;;;;;;;;6105717;23;21263;-87
2023/06/02 04:05:23;;;;;;;7.77;4.40;;;;;;;;;;6106343;23;20392;-87
2023/06/02 04:07:49;;;;;;;6.20;4.77;;;;;;;;;;6106313;23;20377;-87
2023/06/02 04:10:15;;;;;;;6.70;4.80;;;;;;;;;;6108333;23;20466;-87
2023/06/02 04:12:41;;;;;;;8.20;5.37;;;;;;;;;;6106342;23;20813;-87
2023/06/02 04:15:07;;;;;;;9.63;6.03;;;;;;;;;;6131427;23;20407;-87
2023/06/02 04:17:33;;;;;;;8.90;5.43;;;;;;;;;;6108712;23;20428;-87
2023/06/02 04:19:59;;;;;;;6.70;4.83;;;;;;;;;;6109417;23;20464;-87
2023/06/02 04:22:25;;;;;;;7.30;4.80;;;;;;;;;;6108499;23;20404;-86
2023/06/02 04:24:51;;;;;;;8.20;5.63;;;;;;;;;;6108136;23;20401;-87
2023/06/02 04:27:18;;;;;;;8.47;5.20;;;;;;;;;;6108976;23;20377;-86
2023/06/02 04:29:45;;;;;;;8.53;4.93;;;;;;;;;;6106730;23;20893;-86
2023/06/02 04:32:11;;;;;;;5.93;4.50;;;;;;;;;;6108627;23;20444;-86
2023/06/02 04:34:37;;;;;;;7.07;5.17;;;;;;;;;;6106304;23;20377;-86
2023/06/02 04:37:03;;;;;;;8.43;6.10;;;;;;;;;;6107095;23;20377;-88
2023/06/02 04:39:29;;;;;;;9.10;7.10;;;;;;;;;;6107786;23;20457;-87
2023/06/02 04:41:58;;;;;;;7.63;4.90;;;;;;;;;;6107412;23;20977;-86
2023/06/02 04:44:24;;;;;;;10.53;5.83;;;;;;;;;;6108589;23;20875;-87
2023/06/02 04:46:50;;;;;;;8.00;6.20;;;;;;;;;;6107029;23;20390;-87
2023/06/02 04:49:16;;;;;;;6.77;5.00;;;;;;;;;;6107510;23;20528;-87
2023/06/02 04:51:42;;;;;;;10.43;6.47;;;;;;;;;;6109824;23;20385;-87
2023/06/02 04:54:09;;;;;;;8.27;5.90;;;;;;;;;;6107346;23;20857;-85
2023/06/02 04:56:36;;;;;;;7.70;4.60;;;;;;;;;;6106756;23;20703;-85
2023/06/02 04:59:02;;;;;;;9.10;5.73;;;;;;;;;;6107780;23;20475;-85
2023/06/02 05:01:28;;;;;;;9.30;5.53;;;;;;;;;;6109830;23;20384;-86
2023/06/02 05:03:54;;;;;;;8.40;6.13;;;;;;;;;;6106920;23;20396;-86
2023/06/02 05:06:20;;;;;;;7.83;5.87;;;;;;;;;;6113477;23;20389;-85
2023/06/02 05:08:46;;;;;;;11.70;5.90;;;;;;;;;;6107791;23;20744;-84
2023/06/02 05:11:12;;;;;;;10.13;6.77;;;;;;;;;;6133785;23;20385;-85
2023/06/02 05:13:38;;;;;;;9.60;5.80;;;;;;;;;;6106154;23;20368;-85
2023/06/02 05:16:04;;;;;;;8.13;5.20;;;;;;;;;;6107390;23;20845;-85
2023/06/02 05:18:30;;;;;;;11.00;5.97;;;;;;;;;;6105794;23;20848;-86
2023/06/02 05:20:56;;;;;;;8.40;5.20;;;;;;;;;;6105460;23;20455;-84
2023/06/02 05:23:22;;;;;;;7.67;6.53;;;;;;;;;;6106913;23;20397;-86
2023/06/02 05:25:49;;;;;;;9.50;5.70;;;;;;;;;;6107921;23;20381;-86
2023/06/02 05:28:15;;;;;;;7.13;5.17;;;;;;;;;;6107858;23;20531;-86
2023/06/02 05:30:41;;;;;;;9.40;7.00;;;;;;;;;;6112973;23;20381;-91
2023/06/02 05:33:07;;;;;;;7.73;6.30;;;;;;;;;;6112002;23;20396;-89
2023/06/02 05:35:33;;;;;;;8.53;5.97;;;;;;;;;;6112419;23;20391;-92
2023/06/02 05:37:59;;;;;;;6.57;5.80;;;;;;;;;;6113750;23;20556;-93
2023/06/02 05:40:25;;;;;;;7.93;5.97;;;;;;;;;;6116729;23;20381;-92
2023/06/02 05:42:51;;;;;;;8.40;6.60;;;;;;;;;;6113009;23;20493;-92
2023/06/02 05:45:17;;;;;;;11.53;6.27;;;;;;;;;;6114150;23;20381;-92
2023/06/02 05:47:43;;;;;;;9.00;5.90;;;;;;;;;;6113783;23;20853;-93
2023/06/02 05:50:10;;;;;;;15.17;6.10;;;;;;;;;;6116894;23;20421;-91
2023/06/02 05:52:37;;;;;;;8.47;5.13;;;;;;;;;;6141016;23;20372;-90
2023/06/02 05:55:03;;;;;;;10.50;6.67;;;;;;;;;;6114357;23;20396;-92
2023/06/02 05:57:29;;;;;;;11.93;6.40;;;;;;;;;;6113263;23;20404;-90
2023/06/02 05:59:55;;;;;;;13.97;6.03;;;;;;;;;;6114863;23;20399;-92
2023/06/02 06:02:21;;;;;;;9.93;7.37;;;;;;;;;;6113908;23;20381;-92
2023/06/02 06:04:50;;;;;;;12.03;6.83;;;;;;;;;;6111819;23;20446;-90
2023/06/02 06:07:16;;;;;;;10.50;6.83;;;;;;;;;;6113193;23;20385;-89
2023/06/02 06:09:42;;;;;;;11.97;6.20;;;;;;;;;;6113221;23;20424;-94
2023/06/02 06:12:08;;;;;;;7.37;5.97;;;;;;;;;;6114179;23;20397;-92
2023/06/02 06:14:34;;;;;;;10.23;6.60;;;;;;;;;;6112101;23;20377;-86
2023/06/02 06:17:00;;;;;;;9.37;7.30;;;;;;;;;;6138888;23;20549;-92
2023/06/02 06:19:26;;;;;;;11.30;6.90;;;;;;;;;;6112899;23;20387;-91
2023/06/02 06:21:52;;;;;;;14.30;7.30;;;;;;;;;;6113903;23;20397;-93
2023/06/02 06:24:18;;;;;;;16.30;7.33;;;;;;;;;;6111653;23;20456;-93
2023/06/02 06:26:44;;;;;;;10.73;7.00;;;;;;;;;;6110737;23;20384;-91
2023/06/02 06:29:10;;;;;;;15.23;9.77;;;;;;;;;;6110209;23;20931;-92
2023/06/02 06:31:36;;;;;;;9.10;6.57;;;;;;;;;;6114986;23;20382;-92
2023/06/02 06:34:02;;;;;;;10.77;6.00;;;;;;;;;;6110507;23;20858;-91
2023/06/02 06:36:28;;;;;;;12.07;7.07;;;;;;;;;;6136803;23;21006;-89
2023/06/02 06:38:55;;;;;;;9.00;6.60;;;;;;;;;;6112835;23;20452;-93
2023/06/02 06:41:22;;;;;;;13.57;6.13;;;;;;;;;;6113531;23;20377;-92
2023/06/02 06:43:48;;;;;;;8.17;6.50;;;;;;;;;;6137825;23;20372;-93
2023/06/02 06:46:17;;;;;;;8.53;6.10;;;;;;;;;;6116236;23;20428;-91
2023/06/02 06:48:43;;;;;;;11.40;6.03;;;;;;;;;;6110384;23;20421;-91
2023/06/02 06:51:09;;;;;;;9.73;6.37;;;;;;;;;;6110769;23;20470;-89
2023/06/02 06:53:35;;;;;;;13.03;7.77;;;;;;;;;;6108452;23;20429;-90
2023/06/02 06:56:02;;;;;;;13.13;6.57;;;;;;;;;;6109030;23;20381;-90
2023/06/02 06:58:29;;;;;;;10.50;6.50;;;;;;;;;;6132957;23;20373;-91
2023/06/02 07:00:55;;;;;;;11.60;5.87;;;;;;;;;;6111019;23;20440;-91
2023/06/02 07:03:21;;;;;;;9.87;7.20;;;;;;;;;;6107581;23;20805;-91
2023/06/02 07:05:47;;;;;;;9.47;7.33;;;;;;;;;;6108700;23;20400;-91
2023/06/02 07:08:13;;;;;;;14.33;7.70;;;;;;;;;;6107056;23;20504;-91
2023/06/02 07:10:41;;;;;;;13.00;7.60;;;;;;;;;;6112671;23;20442;-96
2023/06/02 07:13:08;;;;;;;13.57;7.87;;;;;;;;;;6137910;23;20397;-90
2023/06/02 07:15:34;;;;;;;9.33;6.93;;;;;;;;;;6109607;23;20416;-91
2023/06/02 07:18:00;;;;;;;12.40;6.90;;;;;;;;;;6109090;23;20373;-91
2023/06/02 07:20:26;;;;;;;12.60;7.10;;;;;;;;;;6112303;23;20385;-91
2023/06/02 07:22:52;;;;;;;11.50;7.73;;;;;;;;;;6109988;23;20434;-91
2023/06/02 07:25:18;;;;;;;10.83;7.80;;;;;;;;;;6106961;23;20512;-91
2023/06/02 07:27:44;;;;;;;9.37;6.70;;;;;;;;;;6134163;23;20385;-90
2023/06/02 07:30:10;;;;;;;10.70;7.20;;;;;;;;;;6110848;23;20433;-92
2023/06/02 07:32:36;;;;;;;11.47;7.67;;;;;;;;;;6110398;23;20401;-91
2023/06/02 07:35:03;;;;;;;10.43;6.90;;;;;;;;;;6111048;23;20397;-90
2023/06/02 07:37:29;;;;;;;11.50;7.83;;;;;;;;;;6110138;23;20399;-90
2023/06/02 07:39:55;;;;;;;10.10;5.80;;;;;;;;;;6110056;23;20392;-90
2023/06/02 07:42:21;;;;;;;6.70;5.70;;;;;;;;;;6109269;23;20788;-89
2023/06/02 07:44:47;;;;;;;7.33;5.50;;;;;;;;;;6109940;23;20389;-91
2023/06/02 07:47:13;;;;;;;8.10;6.30;;;;;;;;;;6110473;23;20801;-90
2023/06/02 07:49:39;;;;;;;7.73;6.50;;;;;;;;;;6135293;23;20405;-91
2023/06/02 07:52:05;;;;;;;11.87;7.20;;;;;;;;;;6110656;23;20876;-91
2023/06/02 07:54:31;;;;;;;11.33;6.90;;;;;;;;;;6111196;23;20388;-92
2023/06/02 07:56:57;;;;;;;8.83;5.23;;;;;;;;;;6080541;23;20454;-92
2023/06/02 07:59:23;;;;;;;10.70;7.30;;;;;;;;;;6053359;23;20406;-91
2023/06/02 08:01:50;;;;;;;9.47;6.33;;;;;;;;;;6055455;23;20464;-92
2023/06/02 08:04:16;;;;;;;9.67;6.80;;;;;;;;;;6050699;23;20415;-91
2023/06/02 08:06:42;;;;;;;7.70;5.90;;;;;;;;;;6051797;23;20398;-91
2023/06/02 08:09:08;;;;;;;9.67;5.53;;;;;;;;;;6050797;23;20426;-91
2023/06/02 08:11:35;;;;;;;7.63;5.80;;;;;;;;;;6052988;23;20401;-91
2023/06/02 08:14:01;;;;;;;9.40;6.30;;;;;;;;;;6052350;23;20453;-91
2023/06/02 08:16:27;;;;;;;10.50;6.70;;;;;;;;;;6050833;23;20451;-92
2023/06/02 08:18:52;;;;;;;12.83;6.80;;;;;;;;;;6051517;23;20393;-92
2023/06/02 08:21:19;;;;;;;11.67;6.40;;;;;;;;;;6054326;23;20441;-93
2023/06/02 08:23:45;;;;;;;8.87;6.70;;;;;;;;;;6075897;23;20399;-90
2023/06/02 08:26:11;;;;;;;8.63;6.53;;;;;;;;;;6049827;23;20506;-91
2023/06/02 08:28:38;;;;;;;7.37;6.23;;;;;;;;;;6097378;23;20401;-90
2023/06/02 08:31:05;;;;;;;12.53;7.00;;;;;;;;;;6085682;23;20409;-90
2023/06/02 08:33:33;;;;;;;10.20;6.93;;;;;;;;;;6081921;23;20873;-88
2023/06/02 08:35:59;;;;;;;12.80;7.00;;;;;;;;;;6105604;23;20449;-90
2023/06/02 08:38:25;;;;;;;14.63;7.33;;;;;;;;;;6082310;23;20401;-90
2023/06/02 08:40:51;;;;;;;11.17;6.93;;;;;;;;;;6084323;23;20944;-91
2023/06/02 08:43:17;;;;;;;9.23;6.93;;;;;;;;;;6083183;23;20398;-91
2023/06/02 08:45:44;;;;;;;7.10;5.93;;;;;;;;;;6083198;23;20385;-90
2023/06/02 08:48:13;;;;;;;7.40;5.87;;;;;;;;;;6083079;23;20388;-91
2023/06/02 08:50:39;;;;;;;9.93;7.20;;;;;;;;;;6082680;23;20381;-91
2023/06/02 08:53:06;;;;;;;8.83;6.20;;;;;;;;;;6082356;23;20389;-91
2023/06/02 08:55:35;;;;;;;10.80;7.23;;;;;;;;;;6082697;23;20378;-91
2023/06/02 08:58:01;;;;;;;10.43;6.17;;;;;;;;;;6081669;23;20754;-89
2023/06/02 09:00:27;;;;;;;7.67;5.90;;;;;;;;;;6081517;23;20396;-90
2023/06/02 09:02:54;;;;;;;9.00;6.80;;;;;;;;;;6081198;23;20416;-92
2023/06/02 09:05:20;;;;;;;14.23;8.40;;;;;;;;;;6083496;23;20382;-91
2023/06/02 09:07:46;;;;;;;11.13;7.50;;;;;;;;;;6082248;23;20437;-91
2023/06/02 09:10:28;;;;;;;10.20;6.70;;;;;;;;;;6082375;23;20406;-90
2023/06/02 09:12:54;;;;;;;8.00;6.50;;;;;;;;;;6084380;23;20358;-90
2023/06/02 09:15:20;;;;;;;8.40;6.37;;;;;;;;;;6087738;23;20390;-91
2023/06/02 09:17:46;;;;;;;9.20;7.67;;;;;;;;;;6091035;23;20476;-91
2023/06/02 09:20:12;;;;;;;9.30;7.10;;;;;;;;;;6094113;23;20401;-90
2023/06/02 09:22:54;;;;;;;9.90;7.30;;;;;;;;;;6089458;23;20473;-90
2023/06/02 09:25:27;;;;;;;10.93;7.20;;;;;;;;;;6134520;23;20396;-91
2023/06/02 09:27:53;;;;;;;9.33;6.43;;;;;;;;;;6111038;23;20385;-91
2023/06/02 09:30:20;;;;;;;10.63;6.47;;;;;;;;;;6111805;23;20424;-91
2023/06/02 09:32:53;;;;;;;8.33;7.03;;;;;;;;;;6114157;23;20380;-91
2023/06/02 09:35:41;;;;;;;10.40;7.30;;;;;;;;;;6111618;23;20474;-92
2023/06/02 09:38:11;;;;;;;8.70;6.07;;;;;;;;;;6138297;23;20381;-93
2023/06/02 09:40:38;;;;;;;8.20;5.97;;;;;;;;;;6112690;23;20412;-93
2023/06/02 09:43:05;;;;;;;10.50;7.03;;;;;;;;;;6138381;23;20404;-94
2023/06/02 09:45:31;;;;;;;6.90;5.70;;;;;;;;;;6113859;23;20376;-95
2023/06/02 09:47:57;;;;;;;11.90;6.70;;;;;;;;;;6115635;23;20460;-93
2023/06/02 09:50:36;;;;;;;9.40;6.70;;;;;;;;;;6115252;23;20405;-95
2023/06/02 09:53:06;;;;;;;9.50;8.17;;;;;;;;;;6115943;23;20368;-92
2023/06/02 09:55:33;;;;;;;9.00;7.10;;;;;;;;;;6115590;23;20452;-93
2023/06/02 09:57:59;;;;;;;10.80;7.70;;;;;;;;;;6114570;23;20388;-95
2023/06/02 10:00:25;;;;;;;8.23;6.23;;;;;;;;;;6112557;23;20377;-95
2023/06/02 10:02:51;;;;;;;9.30;6.00;;;;;;;;;;6113541;23;20384;-92
2023/06/02 10:05:19;;;;;;;10.70;6.27;;;;;;;;;;6113615;23;20541;-94
2023/06/02 10:08:03;;;;;;;7.53;6.07;;;;;;;;;;6116373;23;20403;-92
2023/06/02 10:10:29;;;;;;;10.47;6.27;;;;;;;;;;6138074;23;20429;-92
2023/06/02 10:13:32;;;;;;;9.47;6.53;;;;;;;;;;6139121;23;20838;-92
2023/06/02 10:15:57;;;;;;;13.00;7.87;;;;;;;;;;5992857;23;20440;-92
2023/06/02 10:18:53;;;;;;;10.40;6.80;;;;;;;;;;6110422;23;20405;-91
2023/06/02 10:21:25;;;;;;;9.03;7.13;;;;;;;;;;6011639;23;20386;-92
2023/06/02 10:23:57;;;;;;;8.50;6.53;;;;;;;;;;6116486;23;20963;-92
2023/06/02 10:26:23;;;;;;;10.13;6.73;;;;;;;;;;6165905;23;20375;-92
2023/06/02 10:28:49;;;;;;;11.27;7.53;;;;;;;;;;6138156;23;20420;-90
2023/06/02 10:31:15;;;;;;;10.33;7.17;;;;;;;;;;6112931;23;20729;-92
2023/06/02 10:33:45;;;;;;;10.83;6.97;;;;;;;;;;6113784;23;20424;-93
2023/06/02 10:36:13;;;;;;;12.20;8.37;;;;;;;;;;6113010;23;20484;-92
2023/06/02 10:38:39;;;;;;;8.27;6.90;;;;;;;;;;6113621;23;20389;-92
2023/06/02 10:41:05;;;;;;;8.50;6.93;;;;;;;;;;6112462;23;20392;-92
2023/06/02 10:43:33;;;;;;;7.57;6.80;;;;;;;;;;6118473;23;20400;-90
2023/06/02 10:46:18;;;;;;;8.33;6.70;;;;;;;;;;6137261;23;20427;-92
2023/06/02 10:48:44;;;;;;;8.80;6.20;;;;;;;;;;6113328;23;20427;-90
2023/06/02 10:51:10;;;;;;;10.23;7.03;;;;;;;;;;6111877;23;20401;-93
2023/06/02 10:53:56;;;;;;;9.57;6.90;;;;;;;;;;6114173;23;20377;-91
2023/06/02 10:56:40;;;;;;;8.30;7.00;;;;;;;;;;6136747;23;20806;-92
2023/06/02 10:59:09;;;;;;;7.97;7.03;;;;;;;;;;6138312;23;20729;-90
2023/06/02 11:01:48;;;;;;;7.43;5.80;;;;;;;;;;6113180;23;20742;-91
2023/06/02 11:04:31;;;;;;;7.27;6.53;;;;;;;;;;6137805;23;20411;-91
2023/06/02 11:07:32;;;;;;;9.70;8.03;;;;;;;;;;6114702;23;20388;-93
2023/06/02 11:10:03;;;;;;;8.20;6.70;;;;;;;;;;5992736;23;20428;-92
2023/06/02 11:12:47;;;;;;;8.07;6.10;;;;;;;;;;5996002;23;20417;-93
2023/06/02 11:15:14;;;;;;;10.23;6.20;;;;;;;;;;5991694;23;20454;-93
2023/06/02 11:17:40;;;;;;;7.77;6.47;;;;;;;;;;5993348;23;20405;-92
2023/06/02 11:20:07;;;;;;;10.67;5.97;;;;;;;;;;5993304;23;20389;-93
2023/06/02 11:22:33;;;;;;;6.80;5.77;;;;;;;;;;5992199;23;20444;-92
2023/06/02 11:24:59;;;;;;;9.53;6.93;;;;;;;;;;5991170;23;20428;-94
2023/06/02 11:27:38;;;;;;;8.50;6.07;;;;;;;;;;5993222;23;20962;-92
2023/06/02 11:30:05;;;;;;;7.10;6.40;;;;;;;;;;5993676;23;20515;-94
2023/06/02 11:32:31;;;;;;;6.13;5.50;;;;;;;;;;5995955;23;20405;-90
2023/06/02 11:35:05;;;;;;;11.27;6.10;;;;;;;;;;5990809;23;20400;-90
2023/06/02 11:37:31;;;;;;;10.13;6.10;;;;;;;;;;5989951;23;20813;-91
2023/06/02 11:39:57;;;;;;;7.13;5.80;;;;;;;;;;5990202;23;20434;-90
2023/06/02 11:42:34;;;;;;;6.53;5.90;;;;;;;;;;5991785;23;20405;-91
2023/06/02 11:45:00;;;;;;;7.90;5.60;;;;;;;;;;6127696;23;20397;-90
2023/06/02 11:47:26;;;;;;;6.07;5.47;;;;;;;;;;6113566;23;20392;-92
2023/06/02 11:49:52;;;;;;;8.40;5.97;;;;;;;;;;6111175;23;20927;-90
2023/06/02 11:52:18;;;;;;;8.50;5.47;;;;;;;;;;6137472;23;20393;-92
2023/06/02 11:54:50;;;;;;;8.50;5.90;;;;;;;;;;6109857;23;20615;-92
2023/06/02 11:57:27;;;;;;;6.83;5.97;;;;;;;;;;6133324;23;20460;-91
2023/06/02 12:00:19;;;;;;;6.03;5.23;;;;;;;;;;6108746;23;20384;-92
2023/06/02 12:02:51;;;;;;;6.23;5.43;;;;;;;;;;6134182;23;20389;-90
2023/06/02 12:05:30;;;;;;;5.70;5.07;;;;;;;;;;6108829;23;21054;-91
2023/06/02 12:08:20;;;;;;;6.73;4.80;;;;;;;;;;6136466;23;20420;-91
2023/06/02 12:10:47;;;;;;;5.97;5.37;;;;;;;;;;6137730;23;20436;-90
2023/06/02 12:13:43;;;;;;;7.83;6.13;;;;;;;;;;6116884;23;20381;-92
2023/06/02 12:16:21;;;;;;;6.30;5.43;;;;;;;;;;6106869;23;20373;-89
2023/06/02 12:18:47;;;;;;;5.20;4.70;;;;;;;;;;6111849;23;20460;-91
2023/06/02 12:21:46;;;;;;;5.50;5.00;;;;;;;;;;6114196;23;20778;-91
2023/06/02 12:24:28;;;;;;;6.67;5.77;;;;;;;;;;6019490;23;20403;-91
2023/06/02 12:26:53;;;;;;;7.10;5.40;;;;;;;;;;5995241;23;20449;-91
2023/06/02 12:29:19;;;;;;;8.10;4.70;;;;;;;;;;5994631;23;20425;-91
2023/06/02 12:31:46;;;;;;;6.20;4.80;;;;;;;;;;6015440;23;20378;-91
2023/06/02 12:34:13;;;;;;;5.37;4.83;;;;;;;;;;6001496;23;20422;-93
2023/06/02 12:36:39;;;;;;;4.87;4.37;;;;;;;;;;5966278;24;20399;-92
2023/06/02 12:39:06;;;;;;;5.30;4.50;;;;;;;;;;5988078;23;20398;-92
2023/06/02 12:41:32;;;;;;;8.93;4.80;;;;;;;;;;5989878;23;20406;-91
2023/06/02 12:43:58;;;;;;;5.77;3.93;;;;;;;;;;5989838;23;20700;-90
2023/06/02 12:46:26;;;;;;;6.23;4.70;;;;;;;;;;5987816;24;20390;-90
2023/06/02 12:48:52;;;;;;;7.13;5.13;;;;;;;;;;5987273;23;20457;-91
2023/06/02 12:51:20;;;;;;;6.23;4.90;;;;;;;;;;5988168;23;20391;-90
2023/06/02 12:53:48;;;;;;;5.10;4.60;;;;;;;;;;5989085;23;20413;-91
2023/06/02 12:56:15;;;;;;;8.17;4.93;;;;;;;;;;5987862;23;20894;-92
2023/06/02 12:58:41;;;;;;;5.60;5.10;;;;;;;;;;5998963;23;20401;-90
2023/06/02 13:01:07;;;;;;;8.83;5.63;;;;;;;;;;6082642;23;20402;-92
2023/06/02 13:03:34;;;;;;;5.40;4.90;;;;;;;;;;6082354;23;20390;-91
2023/06/02 13:06:03;;;;;;;6.53;4.07;;;;;;;;;;6083507;23;20869;-91
2023/06/02 13:08:30;;;;;;;9.90;5.13;;;;;;;;;;6111062;23;20872;-90
2023/06/02 13:10:59;;;;;;;8.03;3.97;;;;;;;;;;6113490;23;20392;-90
2023/06/02 13:13:25;;;;;;;6.50;4.90;;;;;;;;;;6115865;23;20373;-91
2023/06/02 13:15:51;;;;;;;5.60;4.40;;;;;;;;;;6112507;23;20397;-91
2023/06/02 13:18:19;;;;;;;6.30;4.80;;;;;;;;;;6114164;23;20392;-91
2023/06/02 13:20:45;;;;;;;5.33;4.77;;;;;;;;;;6113521;23;20756;-92
2023/06/02 13:23:11;;;;;;;6.97;4.70;;;;;;;;;;6114279;23;20412;-89
2023/06/02 13:25:37;;;;;;;5.37;4.27;;;;;;;;;;6114857;23;20877;-92
2023/06/02 13:28:03;;;;;;;5.23;4.40;;;;;;;;;;6113472;23;20415;-90
2023/06/02 13:30:30;;;;;;;5.63;4.87;;;;;;;;;;6114288;23;20423;-89
2023/06/02 13:32:56;;;;;;;9.30;5.33;;;;;;;;;;6119608;23;20396;-92
2023/06/02 13:35:22;;;;;;;5.80;5.07;;;;;;;;;;6116247;23;20783;-92
2023/06/02 13:37:47;;;;;;;5.67;4.90;;;;;;;;;;6114437;23;20443;-91
2023/06/02 13:40:13;;;;;;;5.07;4.07;;;;;;;;;;6114020;23;20424;-93
2023/06/02 13:42:43;;;;;;;6.03;4.60;;;;;;;;;;6115354;23;20453;-91
2023/06/02 13:45:09;;;;;;;5.50;4.77;;;;;;;;;;6114226;23;20388;-92
2023/06/02 13:47:35;;;;;;;6.60;4.70;;;;;;;;;;6113999;23;20621;-91
2023/06/02 13:50:01;;;;;;;4.90;4.40;;;;;;;;;;6111779;23;20427;-91
2023/06/02 13:52:27;;;;;;;6.33;4.63;;;;;;;;;;6114954;23;20705;-92
2023/06/02 13:54:54;;;;;;;6.30;5.70;;;;;;;;;;6113322;23;20760;-91
2023/06/02 13:57:20;;;;;;;8.70;4.80;;;;;;;;;;6115575;23;20153;-92
2023/06/02 13:59:55;;;;;;;5.93;4.50;;;;;;;;;;6116489;23;20525;-90
2023/06/02 14:02:23;;;;;;;5.23;4.73;;;;;;;;;;6117202;23;20380;-90
2023/06/02 14:04:52;;;;;;;5.93;4.50;;;;;;;;;;6115450;23;20391;-92
2023/06/02 14:07:17;;;;;;;5.37;4.50;;;;;;;;;;6118563;23;20419;-90
2023/06/02 14:09:45;;;;;;;8.40;4.40;;;;;;;;;;6139423;23;20416;-90
2023/06/02 14:12:11;;;;;;;5.23;4.57;;;;;;;;;;6141120;23;20369;-91
2023/06/02 14:14:41;;;;;;;6.40;4.47;;;;;;;;;;6116278;23;20462;-91
2023/06/02 14:17:07;;;;;;;6.30;4.03;;;;;;;;;;6117529;23;20385;-89
2023/06/02 14:19:33;;;;;;;7.13;4.50;;;;;;;;;;6114929;23;20377;-91
2023/06/02 14:21:59;;;;;;;7.50;4.30;;;;;;;;;;6115415;23;20388;-90
2023/06/02 14:24:25;;;;;;;6.93;5.60;;;;;;;;;;6113836;23;20760;-91
2023/06/02 14:26:52;;;;;;;6.23;4.70;;;;;;;;;;6114834;23;20385;-92
2023/06/02 14:29:19;;;;;;;7.30;4.23;;;;;;;;;;6114310;23;20425;-91
2023/06/02 14:31:45;;;;;;;5.87;4.43;;;;;;;;;;6115694;23;20404;-91
2023/06/02 14:34:13;;;;;;;6.57;4.87;;;;;;;;;;6114750;23;20476;-91
2023/06/02 14:36:39;;;;;;;6.00;4.80;;;;;;;;;;6116903;23;20364;-90
2023/06/02 14:39:05;;;;;;;5.50;4.73;;;;;;;;;;6117408;23;20416;-92
2023/06/02 14:41:31;;;;;;;6.13;4.50;;;;;;;;;;6115518;23;20385;-92
2023/06/02 14:43:57;;;;;;;6.83;5.23;;;;;;;;;;6114850;23;20443;-93